sensor_id;sensor_type;location;lat;lon;timestamp;pressure;altitude;pressure_sealevel;temperature;humidity
41312;BME280;27061;41.648;24.568;2023-01-01T00:01:12;87093.97;;;4.18;66.12
41312;BME280;27061;41.648;24.568;2023-01-01T00:03:40;87091.75;;;4.13;66.89
41312;BME280;27061;41.648;24.568;2023-01-01T00:06:09;87072.94;;;4.03;67.09
41312;BME280;27061;41.648;24.568;2023-01-01T00:08:37;87082.63;;;4.06;66.98
41312;BME280;27061;41.648;24.568;2023-01-01T00:11:06;87072.03;;;3.94;66.39
41312;BME280;27061;41.648;24.568;2023-01-01T00:13:35;87095.72;;;4.08;66.39
41312;BME280;27061;41.648;24.568;2023-01-01T00:16:10;87096.41;;;4.08;66.73
41312;BME280;27061;41.648;24.568;2023-01-01T00:18:39;87095.00;;;4.07;67.09
41312;BME280;27061;41.648;24.568;2023-01-01T00:21:12;87095.00;;;4.07;66.48
41312;BME280;27061;41.648;24.568;2023-01-01T00:23:39;87092.31;;;4.09;66.46
41312;BME280;27061;41.648;24.568;2023-01-01T00:26:11;87097.81;;;4.09;66.74
41312;BME280;27061;41.648;24.568;2023-01-01T00:28:39;87101.75;;;4.04;66.67
41312;BME280;27061;41.648;24.568;2023-01-01T00:33:33;87101.66;;;4.00;67.43
41312;BME280;27061;41.648;24.568;2023-01-01T00:36:13;87107.13;;;4.00;67.34
41312;BME280;27061;41.648;24.568;2023-01-01T00:38:41;87105.66;;;3.97;67.61
41312;BME280;27061;41.648;24.568;2023-01-01T00:41:09;87118.09;;;4.00;68.10
41312;BME280;27061;41.648;24.568;2023-01-01T00:43:37;87114.03;;;4.01;67.70
41312;BME280;27061;41.648;24.568;2023-01-01T00:46:04;87115.53;;;4.06;67.26
41312;BME280;27061;41.648;24.568;2023-01-01T00:48:32;87106.31;;;3.95;67.18
41312;BME280;27061;41.648;24.568;2023-01-01T00:50:59;87115.16;;;3.94;67.41
41312;BME280;27061;41.648;24.568;2023-01-01T00:53:27;87096.78;;;3.75;67.13
41312;BME280;27061;41.648;24.568;2023-01-01T00:55:54;87119.00;;;3.85;67.11
41312;BME280;27061;41.648;24.568;2023-01-01T00:58:23;87081.63;;;3.72;67.01
41312;BME280;27061;41.648;24.568;2023-01-01T01:00:51;87111.69;;;3.91;67.24
41312;BME280;27061;41.648;24.568;2023-01-01T01:03:19;87105.38;;;3.87;66.84
41312;BME280;27061;41.648;24.568;2023-01-01T01:08:31;87108.81;;;3.87;67.60
41312;BME280;27061;41.648;24.568;2023-01-01T01:11:16;87103.97;;;3.86;68.03
41312;BME280;27061;41.648;24.568;2023-01-01T01:13:44;87101.16;;;3.84;67.68
41312;BME280;27061;41.648;24.568;2023-01-01T01:18:49;87056.19;;;3.45;68.38
41312;BME280;27061;41.648;24.568;2023-01-01T01:21:18;87044.28;;;3.37;68.62
41312;BME280;27061;41.648;24.568;2023-01-01T01:23:46;87103.09;;;3.79;68.97
41312;BME280;27061;41.648;24.568;2023-01-01T01:26:22;87097.69;;;3.81;69.21
41312;BME280;27061;41.648;24.568;2023-01-01T01:28:51;87092.13;;;3.79;68.27
41312;BME280;27061;41.648;24.568;2023-01-01T01:31:20;87101.00;;;3.78;68.44
41312;BME280;27061;41.648;24.568;2023-01-01T01:33:48;87021.63;;;3.34;68.80
41312;BME280;27061;41.648;24.568;2023-01-01T01:36:16;87095.81;;;3.88;68.36
41312;BME280;27061;41.648;24.568;2023-01-01T01:38:44;87088.22;;;3.86;68.07
41312;BME280;27061;41.648;24.568;2023-01-01T01:41:13;87094.41;;;3.87;67.81
41312;BME280;27061;41.648;24.568;2023-01-01T01:46:31;87088.34;;;3.90;68.51
41312;BME280;27061;41.648;24.568;2023-01-01T01:49:24;87044.50;;;3.66;68.31
41312;BME280;27061;41.648;24.568;2023-01-01T01:51:54;87082.06;;;3.86;68.91
41312;BME280;27061;41.648;24.568;2023-01-01T01:54:23;87051.88;;;3.62;68.46
41312;BME280;27061;41.648;24.568;2023-01-01T01:56:56;87077.19;;;3.84;67.47
41312;BME280;27061;41.648;24.568;2023-01-01T01:59:26;87035.84;;;3.52;67.12
41312;BME280;27061;41.648;24.568;2023-01-01T02:01:55;87074.47;;;3.84;66.85
41312;BME280;27061;41.648;24.568;2023-01-01T02:04:23;87073.81;;;3.86;67.30
41312;BME280;27061;41.648;24.568;2023-01-01T02:06:51;87073.91;;;3.88;67.47
41312;BME280;27061;41.648;24.568;2023-01-01T02:09:18;87083.59;;;3.91;67.35
41312;BME280;27061;41.648;24.568;2023-01-01T02:11:46;87060.13;;;3.86;66.79
41312;BME280;27061;41.648;24.568;2023-01-01T02:14:13;87060.59;;;3.78;66.68
41312;BME280;27061;41.648;24.568;2023-01-01T02:16:48;87063.97;;;3.77;67.26
41312;BME280;27061;41.648;24.568;2023-01-01T02:20:23;87065.47;;;3.82;67.17
41312;BME280;27061;41.648;24.568;2023-01-01T02:28:20;87073.53;;;3.76;67.61
41312;BME280;27061;41.648;24.568;2023-01-01T02:30:51;87067.28;;;3.73;67.58
41312;BME280;27061;41.648;24.568;2023-01-01T02:33:23;87058.81;;;3.65;67.60
41312;BME280;27061;41.648;24.568;2023-01-01T02:35:58;87074.94;;;3.77;66.97
41312;BME280;27061;41.648;24.568;2023-01-01T02:38:31;87041.09;;;3.44;67.11
41312;BME280;27061;41.648;24.568;2023-01-01T02:41:05;87074.16;;;3.74;66.86
41312;BME280;27061;41.648;24.568;2023-01-01T02:43:33;87066.41;;;3.66;66.26
41312;BME280;27061;41.648;24.568;2023-01-01T02:46:05;87076.91;;;3.74;66.96
41312;BME280;27061;41.648;24.568;2023-01-01T02:48:44;87072.03;;;3.71;66.88
41312;BME280;27061;41.648;24.568;2023-01-01T02:59:56;87085.00;;;3.70;67.13
41312;BME280;27061;41.648;24.568;2023-01-01T03:03:13;87078.84;;;3.70;67.39
41312;BME280;27061;41.648;24.568;2023-01-01T03:06:50;87073.63;;;3.56;67.09
41312;BME280;27061;41.648;24.568;2023-01-01T03:09:12;87084.19;;;3.65;67.50
41312;BME280;27061;41.648;24.568;2023-01-01T03:19:53;87082.84;;;3.66;66.96
41312;BME280;27061;41.648;24.568;2023-01-01T03:22:27;87085.50;;;3.64;67.17
41312;BME280;27061;41.648;24.568;2023-01-01T03:24:59;87051.88;;;3.38;66.69
41312;BME280;27061;41.648;24.568;2023-01-01T03:27:48;87078.41;;;3.55;67.11
41312;BME280;27061;41.648;24.568;2023-01-01T03:30:17;87095.00;;;3.61;66.92
41312;BME280;27061;41.648;24.568;2023-01-01T03:38:09;87078.47;;;3.57;66.89
41312;BME280;27061;41.648;24.568;2023-01-01T03:40:38;87053.38;;;3.43;67.20
41312;BME280;27061;41.648;24.568;2023-01-01T03:43:20;87053.13;;;3.35;67.45
41312;BME280;27061;41.648;24.568;2023-01-01T03:45:49;87085.38;;;3.60;67.28
41312;BME280;27061;41.648;24.568;2023-01-01T03:48:17;87062.34;;;3.46;67.15
41312;BME280;27061;41.648;24.568;2023-01-01T03:50:51;87084.25;;;3.67;67.19
41312;BME280;27061;41.648;24.568;2023-01-01T03:53:38;87094.44;;;3.65;66.52
41312;BME280;27061;41.648;24.568;2023-01-01T03:59:21;87078.41;;;3.55;66.66
41312;BME280;27061;41.648;24.568;2023-01-01T04:01:52;87069.81;;;3.43;66.41
41312;BME280;27061;41.648;24.568;2023-01-01T04:04:24;87089.53;;;3.61;66.64
41312;BME280;27061;41.648;24.568;2023-01-01T04:06:53;87057.28;;;3.36;66.72
41312;BME280;27061;41.648;24.568;2023-01-01T04:09:24;87066.81;;;3.35;67.04
41312;BME280;27061;41.648;24.568;2023-01-01T04:11:56;87098.34;;;3.58;66.65
41312;BME280;27061;41.648;24.568;2023-01-01T04:14:37;87099.59;;;3.55;66.46
41312;BME280;27061;41.648;24.568;2023-01-01T04:17:06;87107.03;;;3.52;66.10
41312;BME280;27061;41.648;24.568;2023-01-01T04:19:33;87102.03;;;3.45;66.45
41312;BME280;27061;41.648;24.568;2023-01-01T04:22:01;87092.47;;;3.46;66.48
41312;BME280;27061;41.648;24.568;2023-01-01T04:24:29;87110.69;;;3.37;66.82
41312;BME280;27061;41.648;24.568;2023-01-01T04:26:56;87084.50;;;3.32;66.46
41312;BME280;27061;41.648;24.568;2023-01-01T04:29:23;87070.75;;;3.30;66.46
41312;BME280;27061;41.648;24.568;2023-01-01T04:31:50;87106.66;;;3.40;66.60
41312;BME280;27061;41.648;24.568;2023-01-01T04:34:17;87104.13;;;3.46;67.44
41312;BME280;27061;41.648;24.568;2023-01-01T04:36:45;87111.72;;;3.48;67.14
41312;BME280;27061;41.648;24.568;2023-01-01T04:39:12;87074.47;;;3.17;66.53
41312;BME280;27061;41.648;24.568;2023-01-01T04:41:39;87085.78;;;3.29;66.45
41312;BME280;27061;41.648;24.568;2023-01-01T04:44:07;87104.25;;;3.50;66.48
41312;BME280;27061;41.648;24.568;2023-01-01T04:46:34;87094.50;;;3.45;66.72
41312;BME280;27061;41.648;24.568;2023-01-01T04:49:01;87063.53;;;3.17;66.59
41312;BME280;27061;41.648;24.568;2023-01-01T04:51:28;87088.16;;;3.39;66.91
41312;BME280;27061;41.648;24.568;2023-01-01T04:53:55;87090.19;;;3.38;66.05
41312;BME280;27061;41.648;24.568;2023-01-01T04:56:22;87093.09;;;3.44;65.60
41312;BME280;27061;41.648;24.568;2023-01-01T04:58:49;87081.78;;;3.32;66.53
41312;BME280;27061;41.648;24.568;2023-01-01T05:01:21;87101.38;;;3.46;66.32
41312;BME280;27061;41.648;24.568;2023-01-01T05:03:49;87112.03;;;3.36;66.30
41312;BME280;27061;41.648;24.568;2023-01-01T05:06:16;87102.41;;;3.35;66.80
41312;BME280;27061;41.648;24.568;2023-01-01T05:08:46;87103.81;;;3.36;66.60
41312;BME280;27061;41.648;24.568;2023-01-01T05:11:19;87088.34;;;3.23;66.89
41312;BME280;27061;41.648;24.568;2023-01-01T05:13:48;87075.59;;;3.10;66.40
41312;BME280;27061;41.648;24.568;2023-01-01T05:16:18;87105.97;;;3.40;67.13
41312;BME280;27061;41.648;24.568;2023-01-01T05:18:50;87103.88;;;3.38;67.01
41312;BME280;27061;41.648;24.568;2023-01-01T05:21:20;87103.88;;;3.38;66.32
41312;BME280;27061;41.648;24.568;2023-01-01T05:23:47;87106.63;;;3.38;66.78
41312;BME280;27061;41.648;24.568;2023-01-01T05:26:17;87061.97;;;3.12;66.76
41312;BME280;27061;41.648;24.568;2023-01-01T05:28:45;87085.41;;;3.17;66.63
41312;BME280;27061;41.648;24.568;2023-01-01T05:31:17;87088.19;;;3.19;66.12
41312;BME280;27061;41.648;24.568;2023-01-01T05:33:45;87077.00;;;3.11;66.75
41312;BME280;27061;41.648;24.568;2023-01-01T05:36:21;87074.47;;;3.17;66.23
41312;BME280;27061;41.648;24.568;2023-01-01T05:38:49;87064.53;;;3.06;66.16
41312;BME280;27061;41.648;24.568;2023-01-01T05:41:17;87074.00;;;3.03;66.41
41312;BME280;27061;41.648;24.568;2023-01-01T05:43:45;87100.28;;;3.12;66.20
41312;BME280;27061;41.648;24.568;2023-01-01T05:46:14;87100.28;;;3.12;66.11
41312;BME280;27061;41.648;24.568;2023-01-01T05:48:42;87106.09;;;3.22;65.91
41312;BME280;27061;41.648;24.568;2023-01-01T05:51:15;87077.75;;;2.91;66.37
41312;BME280;27061;41.648;24.568;2023-01-01T05:53:42;87123.41;;;3.28;66.43
41312;BME280;27061;41.648;24.568;2023-01-01T05:56:11;87110.78;;;3.19;66.61
41312;BME280;27061;41.648;24.568;2023-01-01T05:58:38;87088.88;;;2.98;66.97
41312;BME280;27061;41.648;24.568;2023-01-01T06:03:36;87092.31;;;2.98;67.52
41312;BME280;27061;41.648;24.568;2023-01-01T06:06:09;87126.91;;;3.31;67.05
41312;BME280;27061;41.648;24.568;2023-01-01T06:08:37;87123.97;;;3.25;66.83
41312;BME280;27061;41.648;24.568;2023-01-01T06:11:06;87125.63;;;3.34;66.56
41312;BME280;27061;41.648;24.568;2023-01-01T06:13:34;87130.56;;;3.38;67.06
41312;BME280;27061;41.648;24.568;2023-01-01T06:16:01;87132.78;;;3.43;67.00
41312;BME280;27061;41.648;24.568;2023-01-01T06:18:30;87075.78;;;2.94;67.32
41312;BME280;27061;41.648;24.568;2023-01-01T06:23:31;87127.84;;;3.40;67.74
41312;BME280;27061;41.648;24.568;2023-01-01T06:26:10;87107.50;;;3.23;67.12
41312;BME280;27061;41.648;24.568;2023-01-01T06:28:37;87093.84;;;3.03;67.79
41312;BME280;27061;41.648;24.568;2023-01-01T06:31:06;87126.34;;;3.35;68.07
41312;BME280;27061;41.648;24.568;2023-01-01T06:33:33;87118.75;;;3.33;68.21
41312;BME280;27061;41.648;24.568;2023-01-01T06:36:02;87140.97;;;3.43;68.42
41312;BME280;27061;41.648;24.568;2023-01-01T06:38:31;87118.63;;;3.29;68.44
41312;BME280;27061;41.648;24.568;2023-01-01T06:41:04;87119.78;;;3.22;68.31
41312;BME280;27061;41.648;24.568;2023-01-01T06:43:33;87144.72;;;3.32;68.71
41312;BME280;27061;41.648;24.568;2023-01-01T06:46:02;87139.59;;;3.42;68.78
41312;BME280;27061;41.648;24.568;2023-01-01T06:48:31;87145.00;;;3.40;69.11
41312;BME280;27061;41.648;24.568;2023-01-01T06:51:04;87146.47;;;3.43;69.62
41312;BME280;27061;41.648;24.568;2023-01-01T06:53:32;87154.88;;;3.49;68.80
41312;BME280;27061;41.648;24.568;2023-01-01T06:55:59;87146.78;;;3.53;68.46
41312;BME280;27061;41.648;24.568;2023-01-01T06:58:26;87153.53;;;3.50;68.78
41312;BME280;27061;41.648;24.568;2023-01-01T07:00:53;87154.81;;;3.47;69.14
41312;BME280;27061;41.648;24.568;2023-01-01T07:03:20;87149.91;;;3.44;69.46
41312;BME280;27061;41.648;24.568;2023-01-01T07:05:47;87158.44;;;3.54;69.16
41312;BME280;27061;41.648;24.568;2023-01-01T07:08:14;87147.78;;;3.42;69.86
41312;BME280;27061;41.648;24.568;2023-01-01T07:10:41;87126.28;;;3.54;69.23
41312;BME280;27061;41.648;24.568;2023-01-01T07:13:08;87134.56;;;3.56;69.55
41312;BME280;27061;41.648;24.568;2023-01-01T07:15:38;87138.78;;;3.59;69.87
41312;BME280;27061;41.648;24.568;2023-01-01T07:18:05;87102.59;;;3.41;70.05
41312;BME280;27061;41.648;24.568;2023-01-01T07:20:32;87146.66;;;3.71;70.47
41312;BME280;27061;41.648;24.568;2023-01-01T07:22:59;87119.41;;;3.53;70.13
41312;BME280;27061;41.648;24.568;2023-01-01T07:25:27;87142.78;;;3.78;70.49
41312;BME280;27061;41.648;24.568;2023-01-01T07:27:54;87094.44;;;3.43;71.00
41312;BME280;27061;41.648;24.568;2023-01-01T07:30:21;87160.03;;;3.83;71.56
41312;BME280;27061;41.648;24.568;2023-01-01T07:32:54;87142.00;;;3.76;71.91
41312;BME280;27061;41.648;24.568;2023-01-01T07:35:21;87128.25;;;3.74;72.04
41312;BME280;27061;41.648;24.568;2023-01-01T07:37:48;87154.94;;;3.95;71.92
41312;BME280;27061;41.648;24.568;2023-01-01T07:40:15;87168.06;;;3.98;72.21
41312;BME280;27061;41.648;24.568;2023-01-01T07:42:42;87166.19;;;4.05;72.53
41312;BME280;27061;41.648;24.568;2023-01-01T07:45:11;87143.63;;;4.07;72.87
41312;BME280;27061;41.648;24.568;2023-01-01T07:47:39;87155.78;;;4.23;73.03
41312;BME280;27061;41.648;24.568;2023-01-01T07:50:06;87131.56;;;4.16;72.68
41312;BME280;27061;41.648;24.568;2023-01-01T07:52:33;87157.59;;;4.38;72.37
41312;BME280;27061;41.648;24.568;2023-01-01T07:55:00;87155.03;;;4.45;71.74
41312;BME280;27061;41.648;24.568;2023-01-01T07:57:27;87144.06;;;4.45;72.33
41312;BME280;27061;41.648;24.568;2023-01-01T07:59:54;87120.25;;;4.27;73.60
41312;BME280;27061;41.648;24.568;2023-01-01T08:02:21;87162.97;;;4.58;74.66
41312;BME280;27061;41.648;24.568;2023-01-01T08:04:48;87147.28;;;4.61;74.67
41312;BME280;27061;41.648;24.568;2023-01-01T08:07:15;87149.72;;;4.74;74.03
41312;BME280;27061;41.648;24.568;2023-01-01T08:09:42;87168.84;;;4.96;74.94
41312;BME280;27061;41.648;24.568;2023-01-01T08:12:09;87130.03;;;4.82;76.15
41312;BME280;27061;41.648;24.568;2023-01-01T08:14:36;87163.25;;;5.18;75.37
41312;BME280;27061;41.648;24.568;2023-01-01T08:17:03;87158.63;;;5.25;74.29
41312;BME280;27061;41.648;24.568;2023-01-01T08:19:31;87124.13;;;5.18;72.23
41312;BME280;27061;41.648;24.568;2023-01-01T08:21:57;87159.56;;;5.61;73.03
41312;BME280;27061;41.648;24.568;2023-01-01T08:24:24;87149.47;;;5.70;72.08
41312;BME280;27061;41.648;24.568;2023-01-01T08:26:52;87154.56;;;5.81;70.87
41312;BME280;27061;41.648;24.568;2023-01-01T08:29:19;87164.47;;;5.93;71.42
41312;BME280;27061;41.648;24.568;2023-01-01T08:31:46;87142.38;;;5.88;71.42
41312;BME280;27061;41.648;24.568;2023-01-01T08:34:13;87153.91;;;6.11;71.31
41312;BME280;27061;41.648;24.568;2023-01-01T08:36:40;87121.88;;;5.94;69.71
41312;BME280;27061;41.648;24.568;2023-01-01T08:39:08;87145.88;;;6.21;69.13
41312;BME280;27061;41.648;24.568;2023-01-01T08:41:36;87141.84;;;6.24;68.81
41312;BME280;27061;41.648;24.568;2023-01-01T08:44:03;87089.50;;;5.90;67.97
41312;BME280;27061;41.648;24.568;2023-01-01T08:46:32;87152.59;;;6.44;68.21
41312;BME280;27061;41.648;24.568;2023-01-01T08:48:59;87150.66;;;6.50;67.94
41312;BME280;27061;41.648;24.568;2023-01-01T08:51:28;87156.25;;;6.54;66.81
41312;BME280;27061;41.648;24.568;2023-01-01T08:53:55;87168.91;;;6.68;65.84
41312;BME280;27061;41.648;24.568;2023-01-01T08:56:22;87175.91;;;6.73;66.00
41312;BME280;27061;41.648;24.568;2023-01-01T08:58:49;87163.59;;;6.76;65.86
41312;BME280;27061;41.648;24.568;2023-01-01T09:01:16;87142.78;;;6.69;66.00
41312;BME280;27061;41.648;24.568;2023-01-01T09:03:48;87165.16;;;6.85;66.59
41312;BME280;27061;41.648;24.568;2023-01-01T09:06:15;87137.97;;;6.69;66.32
41312;BME280;27061;41.648;24.568;2023-01-01T09:08:42;87140.44;;;6.87;66.27
41312;BME280;27061;41.648;24.568;2023-01-01T09:11:28;87156.50;;;6.98;66.48
41312;BME280;27061;41.648;24.568;2023-01-01T09:13:55;87163.63;;;7.12;66.34
41312;BME280;27061;41.648;24.568;2023-01-01T09:16:22;87129.66;;;6.99;66.23
41312;BME280;27061;41.648;24.568;2023-01-01T09:18:49;87139.69;;;7.18;65.97
41312;BME280;27061;41.648;24.568;2023-01-01T09:21:16;87128.47;;;7.10;66.12
41312;BME280;27061;41.648;24.568;2023-01-01T09:23:43;87153.94;;;7.45;65.88
41312;BME280;27061;41.648;24.568;2023-01-01T09:26:10;87119.94;;;7.30;65.95
41312;BME280;27061;41.648;24.568;2023-01-01T09:28:37;87134.78;;;7.51;65.76
41312;BME280;27061;41.648;24.568;2023-01-01T09:31:04;87146.22;;;7.75;62.69
41312;BME280;27061;41.648;24.568;2023-01-01T09:33:32;87151.88;;;7.83;60.56
41312;BME280;27061;41.648;24.568;2023-01-01T09:36:28;87144.47;;;7.94;61.61
41312;BME280;27061;41.648;24.568;2023-01-01T09:38:57;87142.59;;;8.04;60.29
41312;BME280;27061;41.648;24.568;2023-01-01T09:47:36;87129.13;;;8.27;59.88
41312;BME280;27061;41.648;24.568;2023-01-01T09:50:17;87137.13;;;8.51;60.08
41312;BME280;27061;41.648;24.568;2023-01-01T09:52:50;87142.78;;;8.61;61.00
41312;BME280;27061;41.648;24.568;2023-01-01T09:57:54;87137.53;;;8.81;59.89
41312;BME280;27061;41.648;24.568;2023-01-01T10:00:22;87112.69;;;8.79;59.42
41312;BME280;27061;41.648;24.568;2023-01-01T10:07:54;87122.13;;;9.16;55.98
41312;BME280;27061;41.648;24.568;2023-01-01T10:10:46;87126.56;;;9.41;56.28
41312;BME280;27061;41.648;24.568;2023-01-01T10:13:25;87073.09;;;9.16;55.38
41312;BME280;27061;41.648;24.568;2023-01-01T10:18:31;87113.09;;;9.74;53.46
41312;BME280;27061;41.648;24.568;2023-01-01T10:21:16;87107.66;;;9.84;52.01
41312;BME280;27061;41.648;24.568;2023-01-01T10:23:52;87096.50;;;9.76;52.05
41312;BME280;27061;41.648;24.568;2023-01-01T10:26:23;87084.16;;;9.87;53.36
41312;BME280;27061;41.648;24.568;2023-01-01T10:32:15;87101.16;;;10.25;51.67
41312;BME280;27061;41.648;24.568;2023-01-01T10:34:44;87100.50;;;10.33;52.51
41312;BME280;27061;41.648;24.568;2023-01-01T10:37:12;87097.09;;;10.41;51.66
41312;BME280;27061;41.648;24.568;2023-01-01T10:39:41;87079.72;;;10.32;53.57
41312;BME280;27061;41.648;24.568;2023-01-01T10:42:13;87099.28;;;10.54;54.81
41312;BME280;27061;41.648;24.568;2023-01-01T10:44:42;87052.06;;;10.32;55.52
41312;BME280;27061;41.648;24.568;2023-01-01T10:49:56;87086.19;;;10.65;54.74
41312;BME280;27061;41.648;24.568;2023-01-01T10:52:54;87084.91;;;10.78;55.46
41312;BME280;27061;41.648;24.568;2023-01-01T10:55:24;87090.47;;;10.84;54.83
41312;BME280;27061;41.648;24.568;2023-01-01T10:57:52;87083.56;;;10.91;54.47
41312;BME280;27061;41.648;24.568;2023-01-01T11:00:22;87041.25;;;10.75;54.29
41312;BME280;27061;41.648;24.568;2023-01-01T11:03:25;87075.38;;;11.10;54.16
41312;BME280;27061;41.648;24.568;2023-01-01T11:08:29;87083.75;;;11.26;54.33
41312;BME280;27061;41.648;24.568;2023-01-01T11:11:00;87064.34;;;11.22;53.81
41312;BME280;27061;41.648;24.568;2023-01-01T11:13:29;87062.97;;;11.21;53.88
41312;BME280;27061;41.648;24.568;2023-01-01T11:15:57;87039.38;;;11.12;53.74
41312;BME280;27061;41.648;24.568;2023-01-01T11:18:29;87087.31;;;11.47;52.63
41312;BME280;27061;41.648;24.568;2023-01-01T11:21:03;87083.88;;;11.54;51.27
41312;BME280;27061;41.648;24.568;2023-01-01T11:26:02;87075.59;;;11.68;51.71
41312;BME280;27061;41.648;24.568;2023-01-01T11:28:31;87058.25;;;11.64;51.38
41312;BME280;27061;41.648;24.568;2023-01-01T11:31:16;87072.19;;;11.80;51.53
41312;BME280;27061;41.648;24.568;2023-01-01T11:33:47;87052.72;;;11.64;50.05
41312;BME280;27061;41.648;24.568;2023-01-01T11:36:28;87067.34;;;11.85;50.40
41312;BME280;27061;41.648;24.568;2023-01-01T11:41:50;87062.47;;;11.89;50.57
41312;BME280;27061;41.648;24.568;2023-01-01T11:44:34;87046.53;;;11.86;50.45
41312;BME280;27061;41.648;24.568;2023-01-01T11:47:04;87013.19;;;11.71;49.56
41312;BME280;27061;41.648;24.568;2023-01-01T11:49:33;87045.16;;;11.97;50.06
41312;BME280;27061;41.648;24.568;2023-01-01T11:52:52;87067.38;;;12.13;49.53
41312;BME280;27061;41.648;24.568;2023-01-01T11:55:01;87034.06;;;11.93;50.52
41312;BME280;27061;41.648;24.568;2023-01-01T11:57:31;87054.88;;;12.10;49.89
41312;BME280;27061;41.648;24.568;2023-01-01T12:00:01;87057.69;;;12.24;46.16
41312;BME280;27061;41.648;24.568;2023-01-01T12:02:51;87027.13;;;12.04;47.33
41312;BME280;27061;41.648;24.568;2023-01-01T12:05:33;87049.34;;;12.20;47.44
41312;BME280;27061;41.648;24.568;2023-01-01T12:08:06;87038.25;;;12.24;45.60
41312;BME280;27061;41.648;24.568;2023-01-01T12:10:50;87061.84;;;12.37;46.20
41312;BME280;27061;41.648;24.568;2023-01-01T12:13:23;87034.06;;;12.25;46.73
41312;BME280;27061;41.648;24.568;2023-01-01T12:16:13;87054.91;;;12.46;45.28
41312;BME280;27061;41.648;24.568;2023-01-01T12:18:46;87048.66;;;12.48;45.86
41312;BME280;27061;41.648;24.568;2023-01-01T12:21:25;87026.44;;;12.28;45.39
41312;BME280;27061;41.648;24.568;2023-01-01T12:23:54;87004.91;;;12.20;45.36
41312;BME280;27061;41.648;24.568;2023-01-01T12:26:33;87025.72;;;12.29;45.07
41312;BME280;27061;41.648;24.568;2023-01-01T12:29:34;87039.63;;;12.17;46.21
41312;BME280;27061;41.648;24.568;2023-01-01T12:38:03;87035.47;;;12.28;47.68
41312;BME280;27061;41.648;24.568;2023-01-01T12:51:38;87044.47;;;12.21;48.49
41312;BME280;27061;41.648;24.568;2023-01-01T12:59:37;87047.25;;;12.43;45.88
41312;BME280;27061;41.648;24.568;2023-01-01T13:02:21;87041.72;;;12.27;46.70
41312;BME280;27061;41.648;24.568;2023-01-01T13:04:56;87050.75;;;12.37;47.36
41312;BME280;27061;41.648;24.568;2023-01-01T13:07:37;87048.66;;;12.34;48.70
41312;BME280;27061;41.648;24.568;2023-01-01T13:10:21;87023.66;;;12.16;48.87
41312;BME280;27061;41.648;24.568;2023-01-01T13:12:51;87041.00;;;12.20;48.98
41312;BME280;27061;41.648;24.568;2023-01-01T13:20:46;87050.75;;;12.25;48.33
41312;BME280;27061;41.648;24.568;2023-01-01T13:34:31;87060.41;;;11.92;48.29
41312;BME280;27061;41.648;24.568;2023-01-01T13:45:24;87071.38;;;11.55;49.29
41312;BME280;27061;41.648;24.568;2023-01-01T13:48:38;87070.66;;;11.38;49.68
41312;BME280;27061;41.648;24.568;2023-01-01T13:56:57;87052.50;;;11.07;49.74
41312;BME280;27061;41.648;24.568;2023-01-01T14:02:29;87037.72;;;10.64;50.26
41312;BME280;27061;41.648;24.568;2023-01-01T14:05:08;87068.22;;;10.72;50.82
41312;BME280;27061;41.648;24.568;2023-01-01T14:07:48;87070.94;;;10.58;51.10
41312;BME280;27061;41.648;24.568;2023-01-01T14:10:31;87080.56;;;10.53;50.97
41312;BME280;27061;41.648;24.568;2023-01-01T14:15:33;87079.78;;;10.36;51.72
41312;BME280;27061;41.648;24.568;2023-01-01T14:18:04;87079.03;;;10.27;51.97
41312;BME280;27061;41.648;24.568;2023-01-01T14:20:41;87055.16;;;9.90;52.44
41312;BME280;27061;41.648;24.568;2023-01-01T14:23:34;87077.31;;;9.92;52.82
41312;BME280;27061;41.648;24.568;2023-01-01T14:26:07;87082.75;;;9.82;53.34
41312;BME280;27061;41.648;24.568;2023-01-01T14:28:37;87089.56;;;9.71;53.39
41312;BME280;27061;41.648;24.568;2023-01-01T14:31:16;87089.44;;;9.59;53.86
41312;BME280;27061;41.648;24.568;2023-01-01T14:33:45;87094.66;;;9.30;54.53
41312;BME280;27061;41.648;24.568;2023-01-01T14:36:20;87091.72;;;9.16;54.90
41312;BME280;27061;41.648;24.568;2023-01-01T14:38:49;87095.72;;;9.05;55.61
41312;BME280;27061;41.648;24.568;2023-01-01T14:41:58;87101.75;;;8.89;56.27
41312;BME280;27061;41.648;24.568;2023-01-01T14:44:20;87096.88;;;8.86;56.33
41312;BME280;27061;41.648;24.568;2023-01-01T14:46:51;87080.09;;;8.69;56.40
41312;BME280;27061;41.648;24.568;2023-01-01T14:49:28;87065.97;;;8.45;56.74
41312;BME280;27061;41.648;24.568;2023-01-01T14:51:59;87096.69;;;8.71;56.72
41312;BME280;27061;41.648;24.568;2023-01-01T14:54:31;87095.31;;;8.72;56.34
41312;BME280;27061;41.648;24.568;2023-01-01T14:56:59;87088.38;;;8.69;56.46
41312;BME280;27061;41.648;24.568;2023-01-01T14:59:32;87089.66;;;8.62;56.49
41312;BME280;27061;41.648;24.568;2023-01-01T15:02:15;87101.19;;;8.47;56.82
41312;BME280;27061;41.648;24.568;2023-01-01T15:04:43;87091.50;;;8.46;57.00
41312;BME280;27061;41.648;24.568;2023-01-01T15:07:30;87102.91;;;8.24;57.74
41312;BME280;27061;41.648;24.568;2023-01-01T15:09:59;87054.00;;;7.84;58.06
41312;BME280;27061;41.648;24.568;2023-01-01T15:12:28;87105.22;;;7.97;58.45
41312;BME280;27061;41.648;24.568;2023-01-01T15:14:57;87103.63;;;7.82;58.99
41312;BME280;27061;41.648;24.568;2023-01-01T15:17:25;87059.00;;;7.52;59.16
41312;BME280;27061;41.648;24.568;2023-01-01T15:20:20;87102.25;;;7.83;59.15
41312;BME280;27061;41.648;24.568;2023-01-01T15:22:47;87097.28;;;7.76;58.90
41312;BME280;27061;41.648;24.568;2023-01-01T15:25:16;87075.53;;;7.52;59.26
41312;BME280;27061;41.648;24.568;2023-01-01T15:27:49;87104.78;;;7.69;59.47
41312;BME280;27061;41.648;24.568;2023-01-01T15:30:24;87113.06;;;7.71;59.74
41312;BME280;27061;41.648;24.568;2023-01-01T15:32:52;87115.72;;;7.65;59.62
41312;BME280;27061;41.648;24.568;2023-01-01T15:35:29;87091.22;;;7.43;59.51
41312;BME280;27061;41.648;24.568;2023-01-01T15:38:20;87122.56;;;7.62;59.62